Time;durP1;ratioP1;P1;durP2;ratioP2;P2;SDS_P1;SDS_P2;PMS_P1;PMS_P2;Temp;Humidity;BMP_temperature;BMP_pressure;BME280_temperature;BME280_humidity;BME280_pressure;Samples;Min_cycle;Max_cycle;Signal;HPM_P1;HPM_P2
2021/12/09 00:00:21;;;;;;;14.10;8.52;;;;;;;2.39;85.49;99437.78;4825087;29;20512;-68
2021/12/09 00:03:24;;;;;;;24.13;9.20;;;;;;;2.49;85.26;99442.56;4825067;29;20049;-67
2021/12/09 00:06:30;;;;;;;17.75;8.18;;;;;;;2.39;85.37;99441.19;4825018;29;20054;-68
2021/12/09 00:09:34;;;;;;;15.43;8.43;;;;;;;2.42;85.15;99451.41;4824660;29;20134;-68
2021/12/09 00:12:37;;;;;;;15.27;9.02;;;;;;;2.41;84.81;99446.31;4824687;29;20428;-68
2021/12/09 00:15:40;;;;;;;18.67;9.63;;;;;;;2.52;85.04;99457.94;4824645;29;20061;-68
2021/12/09 00:18:44;;;;;;;19.60;10.93;;;;;;;2.60;85.01;99460.25;4824601;29;20478;-68
2021/12/09 00:21:47;;;;;;;16.10;10.50;;;;;;;2.51;85.28;99461.41;4818880;29;20065;-68
2021/12/09 00:24:51;;;;;;;21.95;10.40;;;;;;;2.42;85.47;99466.91;4824810;29;20520;-68
2021/12/09 00:27:54;;;;;;;18.13;10.05;;;;;;;2.47;85.01;99475.31;4824746;29;20496;-68
2021/12/09 00:30:57;;;;;;;22.65;10.15;;;;;;;2.45;85.35;99473.69;4824568;29;20569;-68
2021/12/09 00:34:02;;;;;;;23.73;10.88;;;;;;;2.55;85.08;99475.91;4802904;29;20102;-68
2021/12/09 00:37:21;;;;;;;40.47;10.20;;;;;;;2.31;86.10;99481.94;4824012;29;20070;-68
2021/12/09 00:40:25;;;;;;;26.42;11.32;;;;;;;2.20;86.69;99476.28;4824802;29;20045;-68
2021/12/09 00:43:28;;;;;;;29.50;9.95;;;;;;;2.26;86.75;99481.22;4823542;29;20138;-68
2021/12/09 00:46:31;;;;;;;26.33;9.85;;;;;;;2.19;86.57;99484.94;4802804;29;20053;-68
2021/12/09 00:49:34;;;;;;;33.10;11.55;;;;;;;2.19;86.92;99474.63;4824385;29;20524;-68
2021/12/09 00:52:38;;;;;;;;;;;;;;;2.16;87.25;99482.47;4797898;29;20105;-68
2021/12/09 00:55:42;;;;;;;19.83;10.32;;;;;;;2.16;87.24;99475.56;4788025;30;19967;-68
2021/12/09 00:58:45;;;;;;;15.25;9.63;;;;;;;2.32;86.78;99476.69;4787908;30;20107;-68
2021/12/09 01:01:48;;;;;;;;;;;;;;;2.31;86.24;99469.03;4788399;30;20050;-68
2021/12/09 01:04:52;;;;;;;10.52;7.35;;;;;;;2.30;85.36;99475.09;4787969;30;20055;-68
2021/12/09 01:07:55;;;;;;;21.10;8.52;;;;;;;2.26;85.46;99473.50;4787718;30;20126;-68
2021/12/09 01:11:01;;;;;;;14.68;8.63;;;;;;;2.24;85.92;99483.03;4787639;30;20570;-68
2021/12/09 01:14:04;;;;;;;14.75;7.95;;;;;;;1.72;87.34;99487.38;4787733;30;20196;-68
2021/12/09 01:17:08;;;;;;;;;;;;;;;1.33;89.35;99492.91;4788137;30;20409;-68
2021/12/09 01:20:14;;;;;;;11.43;6.82;;;;;;;1.87;87.72;99497.16;4787504;30;20059;-68
2021/12/09 01:23:18;;;;;;;11.95;7.03;;;;;;;2.09;86.46;99499.88;4787464;30;20137;-68
2021/12/09 01:26:23;;;;;;;13.68;6.85;;;;;;;2.13;86.27;99500.63;4787528;30;20446;-68
2021/12/09 01:29:39;;;;;;;12.15;7.95;;;;;;;2.20;85.59;99496.91;4787489;30;20112;-68
2021/12/09 01:32:51;;;;;;;13.35;7.43;;;;;;;2.22;85.46;99497.72;4787411;30;20123;-68
2021/12/09 01:35:54;;;;;;;10.70;7.70;;;;;;;1.75;86.31;99506.13;4787176;30;20433;-68
2021/12/09 01:38:58;;;;;;;;;;;;;;;1.75;86.62;99506.13;4787783;30;20077;-68
2021/12/09 01:42:01;;;;;;;16.42;10.18;;;;;;;1.46;88.27;99506.22;4787358;30;19925;-68
2021/12/09 01:45:06;;;;;;;15.85;10.70;;;;;;;1.30;88.47;99504.13;4786956;30;20092;-68
2021/12/09 01:48:09;;;;;;;13.40;7.88;;;;;;;1.44;87.98;99502.88;4787193;30;20062;-68
2021/12/09 01:51:13;;;;;;;;;;;;;;;1.35;87.93;99506.59;4811211;29;20065;-68
2021/12/09 01:54:16;;;;;;;9.35;6.38;;;;;;;1.57;87.57;99507.59;4823322;29;19923;-68
2021/12/09 01:57:20;;;;;;;7.85;5.35;;;;;;;1.84;86.77;99507.59;4823598;29;20081;-68
2021/12/09 02:00:27;;;;;;;10.35;6.78;;;;;;;1.43;87.12;99504.59;4822539;29;20049;-68
2021/12/09 02:03:36;;;;;;;8.88;6.85;;;;;;;1.56;87.65;99499.91;4823334;29;20054;-68
2021/12/09 02:06:46;;;;;;;10.23;6.38;;;;;;;1.88;86.35;99503.16;4823259;29;20551;-68
2021/12/09 02:09:51;;;;;;;7.95;5.80;;;;;;;1.76;85.73;99501.84;4823216;29;20132;-68
2021/12/09 02:12:54;;;;;;;12.55;6.40;;;;;;;1.70;86.38;99504.63;4823359;29;20507;-66
2021/12/09 02:15:58;;;;;;;;;;;;;;;1.79;85.83;99504.34;4823545;29;20106;-66
2021/12/09 02:19:02;;;;;;;9.07;5.28;;;;;;;1.72;86.06;99497.66;4823141;29;19923;-67
2021/12/09 02:22:05;;;;;;;12.25;5.97;;;;;;;1.68;86.19;99498.66;4823347;29;20103;-67
2021/12/09 02:25:09;;;;;;;10.70;6.13;;;;;;;1.79;85.92;99496.59;4822886;29;20417;-67
2021/12/09 02:28:14;;;;;;;9.93;6.80;;;;;;;1.60;85.84;99496.34;4823175;29;20114;-67
2021/12/09 02:31:17;;;;;;;9.15;5.75;;;;;;;1.85;85.72;99496.38;4822904;29;20049;-67
2021/12/09 02:34:20;;;;;;;8.90;5.93;;;;;;;2.00;85.18;99501.03;4811533;29;20053;-67
2021/12/09 02:37:24;;;;;;;12.40;5.18;;;;;;;2.01;84.67;99501.84;4823223;29;20122;-67
2021/12/09 02:40:27;;;;;;;9.35;6.07;;;;;;;1.95;84.89;99497.78;4822080;29;20096;-67
2021/12/09 02:43:30;;;;;;;9.40;6.10;;;;;;;2.03;84.59;99484.63;4822822;29;20054;-67
2021/12/09 02:46:37;;;;;;;7.78;5.40;;;;;;;2.04;84.67;99492.31;4823112;29;20122;-67
2021/12/09 02:49:40;;;;;;;8.20;5.97;;;;;;;2.10;84.62;99483.50;4822754;29;20465;-67
2021/12/09 02:52:43;;;;;;;14.88;5.57;;;;;;;2.08;84.38;99488.72;4822783;29;20061;-67
2021/12/09 02:55:47;;;;;;;12.60;5.97;;;;;;;1.83;85.37;99488.69;4822562;29;20053;-67
2021/12/09 02:58:50;;;;;;;;;;;;;;;1.84;85.31;99486.97;4823125;29;20050;-67
2021/12/09 03:01:58;;;;;;;9.63;5.40;;;;;;;1.83;85.21;99493.03;4822491;29;19927;-67
2021/12/09 03:05:03;;;;;;;8.60;5.55;;;;;;;1.92;84.69;99495.28;4487528;29;10000777;-67
2021/12/09 03:08:08;;;;;;;8.23;5.75;;;;;;;2.06;84.21;99497.41;4823122;29;20151;-67
2021/12/09 03:11:20;;;;;;;9.82;6.22;;;;;;;2.06;84.10;99495.66;4812339;29;20089;-67
2021/12/09 03:14:24;;;;;;;12.88;6.22;;;;;;;2.12;83.36;99499.78;4822593;29;20057;-67
2021/12/09 03:17:27;;;;;;;8.20;5.53;;;;;;;2.06;83.58;99511.13;4822771;29;20050;-67
2021/12/09 03:20:31;;;;;;;9.30;5.15;;;;;;;2.07;83.85;99506.81;4822557;29;20506;-67
2021/12/09 03:23:35;;;;;;;9.23;5.78;;;;;;;2.06;83.96;99513.72;4822672;29;20053;-67
2021/12/09 03:26:40;;;;;;;;;;;;;;;2.07;83.92;99510.25;4822634;29;20118;-67
2021/12/09 03:29:43;;;;;;;10.93;5.20;;;;;;;1.98;84.70;99500.25;4822304;29;19927;-67
2021/12/09 03:32:47;;;;;;;9.30;5.45;;;;;;;2.11;84.44;99503.25;4822448;29;20620;-67
2021/12/09 03:36:01;;;;;;;;;;;;;;;2.25;83.32;99513.09;4822712;29;20433;-67
2021/12/09 03:39:09;;;;;;;10.85;6.30;;;;;;;2.09;83.58;99507.63;4822199;29;19926;-67
2021/12/09 03:42:14;;;;;;;8.70;5.80;;;;;;;2.05;83.81;99509.47;4822152;29;20119;-67
2021/12/09 03:45:18;;;;;;;9.18;5.50;;;;;;;2.08;83.57;99529.97;4822181;29;20356;-67
2021/12/09 03:48:24;;;;;;;12.68;6.32;;;;;;;1.86;84.75;99529.00;4822542;29;20076;-67
2021/12/09 03:51:27;;;;;;;12.32;5.25;;;;;;;1.86;84.69;99529.00;4821580;29;20065;-67
2021/12/09 03:54:30;;;;;;;8.05;4.95;;;;;;;2.02;84.35;99530.19;4822075;29;20118;-67
2021/12/09 03:57:33;;;;;;;;;;;;;;;2.06;84.02;99531.75;4823003;29;20535;-67
2021/12/09 04:00:37;;;;;;;11.98;5.43;;;;;;;2.12;83.94;99529.88;4810711;29;20065;-67
2021/12/09 04:03:40;;;;;;;11.90;6.32;;;;;;;2.12;83.70;99533.28;4821335;29;20153;-67
2021/12/09 04:06:44;;;;;;;9.63;5.72;;;;;;;2.06;83.75;99536.91;4821892;29;20534;-67
2021/12/09 04:09:47;;;;;;;9.70;5.25;;;;;;;2.08;83.99;99539.47;4821398;29;20056;-67
2021/12/09 04:12:51;;;;;;;;;;;;;;;2.23;83.80;99540.66;4822141;29;20581;-67
2021/12/09 04:15:54;;;;;;;10.90;5.03;;;;;;;2.12;83.65;99548.78;4821661;29;19967;-67
2021/12/09 04:18:58;;;;;;;8.50;5.45;;;;;;;2.13;83.55;99552.19;4821782;29;20122;-67
2021/12/09 04:22:02;;;;;;;;;;;;;;;1.89;84.73;99556.44;4822065;29;20060;-67
2021/12/09 04:25:06;;;;;;;12.18;5.05;;;;;;;2.00;84.58;99557.75;4821619;29;19951;-67
2021/12/09 04:28:09;;;;;;;9.77;5.82;;;;;;;1.74;84.85;99548.28;4821146;29;20524;-67
2021/12/09 04:31:14;;;;;;;;;;;;;;;1.94;85.04;99546.78;4821994;29;20319;-67
2021/12/09 04:34:19;;;;;;;8.50;4.70;;;;;;;2.09;84.14;99566.91;4821942;29;19923;-67
2021/12/09 04:37:22;;;;;;;8.70;5.22;;;;;;;2.14;83.69;99570.22;4821950;29;20061;-67
2021/12/09 04:40:25;;;;;;;;;;;;;;;2.12;83.53;99571.13;4821426;29;20057;-67
2021/12/09 04:43:29;;;;;;;12.07;5.63;;;;;;;2.10;83.37;99564.28;4820573;29;20431;-67
2021/12/09 04:46:32;;;;;;;8.07;5.80;;;;;;;2.00;84.35;99570.63;4821610;29;20068;-67
2021/12/09 04:49:36;;;;;;;8.27;4.80;;;;;;;2.08;84.18;99565.25;4821169;29;20064;-69
2021/12/09 04:52:39;;;;;;;10.80;5.28;;;;;;;1.86;84.97;99559.94;4821435;29;20057;-67
2021/12/09 04:55:43;;;;;;;13.95;6.05;;;;;;;1.93;85.01;99556.25;4821112;29;20093;-67
2021/12/09 04:58:46;;;;;;;;;;;;;;;1.90;84.76;99561.53;4821429;29;20057;-67
2021/12/09 05:01:50;;;;;;;9.30;4.82;;;;;;;1.99;84.93;99556.06;4821481;29;20011;-67
2021/12/09 05:04:54;;;;;;;10.10;5.72;;;;;;;2.05;84.52;99555.88;4816885;29;20118;-67
2021/12/09 05:07:57;;;;;;;8.80;5.25;;;;;;;2.14;84.22;99559.03;4816638;29;20103;-67
2021/12/09 05:11:14;;;;;;;9.23;5.50;;;;;;;2.18;83.95;99558.03;4817735;29;20203;-67
2021/12/09 05:14:21;;;;;;;7.93;5.05;;;;;;;1.94;84.53;99568.25;4813684;29;20057;-67
2021/12/09 05:17:24;;;;;;;8.55;4.88;;;;;;;2.00;84.90;99570.63;4815934;29;20142;-68
2021/12/09 05:20:28;;;;;;;12.80;5.55;;;;;;;2.05;84.92;99568.75;4816382;29;20066;-67
2021/12/09 05:23:31;;;;;;;10.60;7.10;;;;;;;2.07;84.76;99568.69;4814288;29;20088;-67
2021/12/09 05:26:44;;;;;;;11.85;9.60;;;;;;;2.01;84.41;99574.91;4815839;29;20049;-67
2021/12/09 05:30:02;;;;;;;9.48;6.07;;;;;;;1.83;84.04;99578.91;4816724;29;20089;-67
2021/12/09 05:33:06;;;;;;;14.48;6.68;;;;;;;1.75;84.63;99574.88;4816234;29;20053;-67
2021/12/09 05:36:10;;;;;;;9.00;5.30;;;;;;;1.93;84.64;99570.91;4816600;29;20079;-67
2021/12/09 05:39:14;;;;;;;8.02;5.47;;;;;;;1.80;84.85;99576.44;4816682;29;20119;-67
2021/12/09 05:42:20;;;;;;;6.97;4.93;;;;;;;1.92;84.41;99590.69;4829736;29;20153;-67
2021/12/09 05:45:24;;;;;;;13.82;7.55;;;;;;;1.56;86.02;99584.91;4834111;29;20052;-67
2021/12/09 05:48:52;;;;;;;;;;;;;;;1.71;85.72;99588.78;4488904;29;9999611;-67
2021/12/09 05:51:59;;;;;;;16.58;9.50;;;;;;;1.53;85.70;99587.59;4817217;29;20005;-67
2021/12/09 05:55:04;;;;;;;15.88;9.35;;;;;;;1.66;85.32;99591.50;4816154;29;20141;-67
2021/12/09 05:58:07;;;;;;;10.73;7.03;;;;;;;1.79;85.15;99595.38;4819119;29;20081;-68
2021/12/09 06:01:11;;;;;;;8.40;4.63;;;;;;;1.71;83.99;99596.50;4818306;29;20840;-67
2021/12/09 06:04:14;;;;;;;7.47;3.97;;;;;;;1.83;83.71;99601.28;4798906;29;20058;-67
2021/12/09 06:07:18;;;;;;;7.20;4.13;;;;;;;1.89;83.69;99611.41;4800102;29;20050;-67
2021/12/09 06:10:21;;;;;;;8.27;4.55;;;;;;;1.83;83.39;99612.44;4808596;29;20041;-68
2021/12/09 06:13:26;;;;;;;;;;;;;;;1.56;84.36;99603.81;4818526;29;20044;-67
2021/12/09 06:16:30;;;;;;;10.32;5.75;;;;;;;1.64;84.42;99613.88;4819280;29;19985;-67
2021/12/09 06:19:33;;;;;;;10.02;5.28;;;;;;;1.56;84.51;99613.25;4818617;29;20081;-67
2021/12/09 06:22:37;;;;;;;10.20;5.15;;;;;;;1.49;85.29;99616.91;4818158;29;20166;-67
2021/12/09 06:25:41;;;;;;;8.45;5.57;;;;;;;1.59;85.35;99619.16;4818653;29;20050;-67
2021/12/09 06:28:43;;;;;;;12.20;5.90;;;;;;;1.65;85.29;99622.44;4821950;29;20102;-67
2021/12/09 06:31:47;;;;;;;9.50;5.53;;;;;;;1.57;85.25;99623.53;4822468;29;20056;-67
2021/12/09 06:34:50;;;;;;;9.82;5.00;;;;;;;1.57;84.62;99626.13;4823165;29;20053;-67
2021/12/09 06:37:54;;;;;;;;;;;;;;;1.68;84.91;99633.50;4823326;29;20471;-67
2021/12/09 06:40:58;;;;;;;12.02;8.63;;;;;;;1.75;84.52;99649.63;4821800;29;20008;-67
2021/12/09 06:44:02;;;;;;;11.77;7.00;;;;;;;1.74;84.60;99642.78;4826495;29;20045;-67
2021/12/09 06:47:05;;;;;;;13.63;8.23;;;;;;;1.71;84.38;99640.31;4826750;29;20111;-67
2021/12/09 06:50:12;;;;;;;20.27;8.43;;;;;;;1.61;85.36;99643.16;4814908;29;20061;-67
2021/12/09 06:53:16;;;;;;;13.70;8.57;;;;;;;1.50;86.07;99647.81;4826174;29;20050;-67
2021/12/09 06:56:19;;;;;;;60.38;8.73;;;;;;;1.49;85.83;99648.66;4807153;29;20050;-67
2021/12/09 06:59:22;;;;;;;11.43;7.13;;;;;;;1.47;86.02;99654.75;4807991;29;20053;-67
2021/12/09 07:02:25;;;;;;;23.85;7.28;;;;;;;1.38;86.74;99661.88;4806886;29;20467;-67
2021/12/09 07:05:29;;;;;;;14.38;6.70;;;;;;;1.36;86.82;99662.78;4808001;29;20113;-67
2021/12/09 07:08:36;;;;;;;8.65;5.03;;;;;;;1.43;86.33;99663.47;4806943;29;20099;-67
2021/12/09 07:11:44;;;;;;;7.30;5.22;;;;;;;1.57;85.63;99661.34;4807887;29;20092;-67
2021/12/09 07:14:47;;;;;;;7.60;4.82;;;;;;;1.49;85.46;99671.84;4807876;29;20165;-67
2021/12/09 07:17:51;;;;;;;9.18;4.47;;;;;;;1.62;85.21;99678.34;4807974;29;20126;-67
2021/12/09 07:20:55;;;;;;;8.02;4.57;;;;;;;1.56;85.05;99678.53;4807728;29;20080;-67
2021/12/09 07:23:58;;;;;;;7.93;4.00;;;;;;;1.67;84.82;99688.53;4819955;29;20289;-67
2021/12/09 07:27:01;;;;;;;6.38;3.35;;;;;;;1.53;84.86;99691.50;4825623;29;20041;-67
2021/12/09 07:30:07;;;;;;;6.20;4.10;;;;;;;1.72;84.53;99688.38;4825842;29;20061;-67
2021/12/09 07:33:10;;;;;;;7.03;4.63;;;;;;;1.55;84.74;99687.13;4825469;29;20052;-67
2021/12/09 07:36:13;;;;;;;8.20;5.28;;;;;;;1.53;85.28;99694.09;4825407;29;20062;-67
2021/12/09 07:39:17;;;;;;;8.60;6.05;;;;;;;1.73;84.62;99690.09;4825223;29;20417;-67
2021/12/09 07:42:20;;;;;;;6.00;3.80;;;;;;;1.84;84.26;99699.16;4825710;29;20528;-67
2021/12/09 07:45:24;;;;;;;6.45;4.28;;;;;;;1.83;84.38;99709.53;4825391;29;20480;-67
2021/12/09 07:48:28;;;;;;;8.70;4.05;;;;;;;1.91;83.83;99711.88;4825240;29;20058;-67
2021/12/09 07:51:32;;;;;;;5.43;3.47;;;;;;;1.61;84.93;99711.88;4805783;29;20205;-67
2021/12/09 07:54:35;;;;;;;5.20;3.30;;;;;;;1.76;84.73;99715.78;4806647;29;20476;-67
2021/12/09 07:57:39;;;;;;;7.88;3.60;;;;;;;1.70;84.60;99709.06;4807149;29;20561;-67
2021/12/09 08:00:43;;;;;;;6.80;3.22;;;;;;;1.73;84.70;99708.13;4816693;29;20096;-67
2021/12/09 08:03:47;;;;;;;4.90;2.92;;;;;;;1.75;84.79;99716.63;4806973;29;20053;-67
2021/12/09 08:06:51;;;;;;;4.70;3.20;;;;;;;1.85;84.28;99710.31;4806602;29;20541;-67
2021/12/09 08:09:54;;;;;;;7.15;3.47;;;;;;;1.75;84.54;99719.22;4806851;29;20113;-68
2021/12/09 08:12:59;;;;;;;;;;;;;;;1.73;84.82;99723.59;4806472;29;20124;-67
2021/12/09 08:16:02;;;;;;;5.72;3.45;;;;;;;1.90;84.95;99730.81;4806911;29;19973;-67
2021/12/09 08:19:20;;;;;;;5.30;3.38;;;;;;;1.89;84.82;99731.72;4806742;29;20069;-67
2021/12/09 08:22:23;;;;;;;7.45;3.80;;;;;;;2.00;84.54;99727.91;4806003;29;20050;-67
2021/12/09 08:25:27;;;;;;;;;;;;;;;2.08;84.33;99731.13;4806997;29;20096;-67
2021/12/09 08:28:30;;;;;;;5.47;3.80;;;;;;;2.06;84.52;99729.47;4806632;29;19923;-67
2021/12/09 08:31:35;;;;;;;7.07;4.43;;;;;;;1.97;84.85;99730.59;4806716;29;20187;-67
2021/12/09 08:34:38;;;;;;;8.00;4.50;;;;;;;1.99;85.25;99739.13;4806417;29;20053;-67
2021/12/09 08:37:42;;;;;;;7.18;4.03;;;;;;;2.02;85.39;99731.31;4806429;29;20122;-67
2021/12/09 08:40:47;;;;;;;8.73;3.80;;;;;;;2.08;85.35;99732.84;4806394;29;20105;-67
2021/12/09 08:43:51;;;;;;;7.05;3.42;;;;;;;2.16;85.48;99735.19;4806338;29;20192;-67
2021/12/09 08:46:54;;;;;;;5.05;2.53;;;;;;;2.14;85.39;99740.41;4806399;29;20583;-67
2021/12/09 08:49:57;;;;;;;5.72;3.47;;;;;;;2.16;85.23;99740.34;4808268;29;20065;-67
2021/12/09 08:53:04;;;;;;;9.20;5.45;;;;;;;2.05;85.93;99741.53;4824551;29;20572;-67
2021/12/09 08:56:07;;;;;;;10.95;6.75;;;;;;;1.91;86.62;99738.50;4824226;29;20466;-67
2021/12/09 08:59:11;;;;;;;14.20;9.07;;;;;;;1.70;87.46;99754.59;4824214;29;20106;-68
2021/12/09 09:02:14;;;;;;;15.48;8.52;;;;;;;1.89;87.23;99745.44;4824294;29;20142;-67
2021/12/09 09:05:18;;;;;;;12.70;7.68;;;;;;;2.16;86.90;99748.94;4823267;29;20116;-67
2021/12/09 09:08:22;;;;;;;14.10;8.88;;;;;;;2.22;85.89;99748.75;4824137;29;20045;-67
2021/12/09 09:11:50;;;;;;;;;;;;;;;2.30;86.50;99745.94;4824214;29;20110;-67
2021/12/09 09:14:53;;;;;;;19.65;12.20;;;;;;;2.51;85.71;99750.41;4822722;29;20244;-68
2021/12/09 09:17:56;;;;;;;11.88;7.82;;;;;;;2.68;85.06;99741.28;4823047;29;20111;-67
2021/12/09 09:20:59;;;;;;;;;;;;;;;2.68;85.44;99738.72;4824011;29;20114;-68
2021/12/09 09:24:03;;;;;;;11.52;6.32;;;;;;;2.73;85.66;99748.00;4823315;29;20398;-67
2021/12/09 09:27:07;;;;;;;7.47;3.95;;;;;;;2.79;85.43;99742.63;4821102;29;20050;-67
2021/12/09 09:30:17;;;;;;;8.00;4.25;;;;;;;2.78;85.47;99740.13;4822695;29;20562;-67
2021/12/09 09:33:23;;;;;;;6.78;3.97;;;;;;;2.76;85.88;99731.56;4823091;29;20207;-67
2021/12/09 09:36:26;;;;;;;6.70;3.75;;;;;;;2.91;85.60;99741.41;4823871;29;20406;-67
2021/12/09 09:39:31;;;;;;;;;;;;;;;3.07;85.21;99733.13;4824226;29;20099;-67
2021/12/09 09:42:57;;;;;;;9.75;4.57;;;;;;;3.17;85.13;99739.66;4823623;29;19966;-67
2021/12/09 09:46:01;;;;;;;8.48;4.78;;;;;;;3.09;85.61;99746.81;4812271;29;20045;-68
2021/12/09 09:49:07;;;;;;;15.65;6.03;;;;;;;3.25;85.37;99747.97;4805206;29;20563;-67
2021/12/09 09:52:11;;;;;;;12.82;6.90;;;;;;;3.24;83.74;99751.47;4805461;29;20453;-67
2021/12/09 09:55:20;;;;;;;10.25;6.30;;;;;;;3.43;81.62;99749.94;4805005;29;20442;-67
2021/12/09 09:58:25;;;;;;;11.00;4.85;;;;;;;3.56;81.47;99744.31;4805381;29;20049;-67
2021/12/09 10:01:31;;;;;;;17.55;5.50;;;;;;;3.57;82.82;99738.25;4805069;29;20106;-67
2021/12/09 10:07:43;;;;;;;12.88;6.65;;;;;;;3.71;83.47;99720.50;4804866;29;20049;-67
2021/12/09 10:10:46;;;;;;;10.07;6.07;;;;;;;3.77;82.72;99719.44;4804796;29;20053;-67
2021/12/09 10:13:50;;;;;;;14.13;8.27;;;;;;;3.76;82.21;99728.91;4804891;29;20081;-67
2021/12/09 10:17:19;;;;;;;;;;;;;;;3.78;80.69;99721.97;4818630;29;20057;-67
2021/12/09 10:20:45;;;;;;;7.05;4.72;;;;;;;3.90;79.38;99710.31;4821459;29;19923;-67
2021/12/09 10:23:58;;;;;;;11.02;6.82;;;;;;;3.62;80.02;99705.34;4822979;29;20049;-68
2021/12/09 10:27:01;;;;;;;12.57;5.70;;;;;;;3.61;79.91;99704.50;4804816;29;20114;-68
2021/12/09 10:30:08;;;;;;;12.10;5.60;;;;;;;3.32;80.14;99695.22;4804183;29;20053;-67
2021/12/09 10:33:18;;;;;;;10.98;5.32;;;;;;;3.13;79.27;99707.09;4804593;29;20057;-68
2021/12/09 10:36:46;;;;;;;10.32;4.68;;;;;;;3.18;79.15;99700.00;4804620;29;20493;-67
2021/12/09 10:39:54;;;;;;;18.42;7.50;;;;;;;3.33;79.15;99702.06;4815349;29;20590;-67
2021/12/09 10:43:02;;;;;;;13.85;6.05;;;;;;;3.37;78.85;99706.22;4822929;29;20056;-67
2021/12/09 10:46:05;;;;;;;12.60;6.50;;;;;;;3.45;78.39;99704.22;4822778;29;20057;-68
2021/12/09 10:49:13;;;;;;;11.25;5.82;;;;;;;3.49;78.48;99702.34;4822718;29;20048;-67
2021/12/09 10:52:35;;;;;;;13.77;4.85;;;;;;;3.43;78.42;99703.41;4822617;29;20057;-67
2021/12/09 10:55:38;;;;;;;16.33;5.20;;;;;;;3.36;78.60;99686.44;4822652;29;20057;-67
2021/12/09 10:58:44;;;;;;;13.07;5.60;;;;;;;3.46;78.13;99692.13;4822400;29;20516;-67
2021/12/09 11:02:05;;;;;;;12.52;6.10;;;;;;;3.57;77.44;99694.31;4822347;29;20053;-67
2021/12/09 11:05:09;;;;;;;13.27;5.18;;;;;;;3.58;77.79;99696.00;4822617;29;20175;-67
2021/12/09 11:08:34;;;;;;;15.27;4.80;;;;;;;3.57;77.59;99697.72;4822482;29;20053;-67
2021/12/09 11:11:41;;;;;;;13.48;5.28;;;;;;;3.68;77.32;99694.75;4822596;29;20053;-67
2021/12/09 11:14:57;;;;;;;13.38;5.15;;;;;;;3.72;76.78;99696.31;4822910;29;20061;-67
2021/12/09 11:18:07;;;;;;;8.68;4.55;;;;;;;3.75;76.49;99698.81;4821862;29;20057;-68
2021/12/09 11:21:35;;;;;;;14.60;5.40;;;;;;;3.63;76.95;99692.34;4799608;29;20142;-67
2021/12/09 11:24:45;;;;;;;8.48;4.45;;;;;;;3.80;77.17;99691.72;4800077;29;20050;-67
2021/12/09 11:28:11;;;;;;;13.85;4.63;;;;;;;3.63;77.50;99688.91;4800190;29;20705;-67
2021/12/09 11:31:17;;;;;;;10.38;5.80;;;;;;;3.77;77.24;99681.50;4806513;29;20057;-67
2021/12/09 11:34:25;;;;;;;11.63;5.57;;;;;;;3.88;77.44;99681.06;4821662;29;20075;-67
2021/12/09 11:40:51;;;;;;;12.60;5.32;;;;;;;3.90;77.61;99690.47;4821847;29;20049;-67
2021/12/09 11:43:54;;;;;;;16.25;6.05;;;;;;;3.73;77.73;99692.84;4820804;29;20417;-68
2021/12/09 11:46:58;;;;;;;;;;;;;;;3.87;77.35;99680.25;4821363;29;20053;-67
2021/12/09 11:50:01;;;;;;;13.57;5.68;;;;;;;3.84;77.32;99690.69;4820697;29;19936;-67
2021/12/09 11:53:07;;;;;;;12.45;5.00;;;;;;;3.86;77.37;99680.28;4820995;29;20850;-68
2021/12/09 11:56:29;;;;;;;16.42;5.05;;;;;;;3.99;76.83;99691.88;4820603;29;20053;-67
2021/12/09 12:13:06;;;;;;;13.63;4.80;;;;;;;4.22;75.06;99680.63;4820436;29;20053;-68
2021/12/09 12:20:51;;;;;;;14.60;4.82;;;;;;;4.23;74.61;99665.94;4804455;29;20520;-68
2021/12/09 12:33:33;;;;;;;15.35;4.85;;;;;;;4.40;74.29;99663.50;4806634;29;20111;-68
2021/12/09 12:40:10;;;;;;;16.17;3.40;;;;;;;4.25;74.39;99648.59;4820730;29;20570;-68
2021/12/09 12:43:41;;;;;;;14.15;5.38;;;;;;;4.04;74.86;99645.13;4819567;29;20418;-67
2021/12/09 12:47:09;;;;;;;8.30;3.72;;;;;;;3.91;75.70;99639.59;4801735;29;20468;-67
2021/12/09 12:50:14;;;;;;;12.02;4.05;;;;;;;3.92;74.96;99646.44;4802253;29;20438;-67
2021/12/09 12:53:41;;;;;;;9.85;4.13;;;;;;;4.01;74.99;99645.22;4823143;29;20053;-68
2021/12/09 12:56:53;;;;;;;11.95;4.15;;;;;;;3.99;75.21;99636.69;4790634;29;20422;-68
2021/12/09 13:00:12;;;;;;;21.20;9.63;;;;;;;4.02;74.50;99639.16;4813585;29;20124;-68
2021/12/09 13:03:30;;;;;;;41.33;20.88;;;;;;;4.08;74.61;99629.41;4819741;29;20072;-68
2021/12/09 13:06:58;;;;;;;33.72;19.45;;;;;;;4.17;74.09;99621.28;4819288;29;20104;-69
2021/12/09 13:20:30;;;;;;;15.23;6.72;;;;;;;4.25;73.96;99620.97;4819498;29;20053;-68
2021/12/09 13:23:34;;;;;;;16.75;7.57;;;;;;;4.23;74.56;99619.34;4819744;29;20198;-68
2021/12/09 13:27:08;;;;;;;9.98;4.28;;;;;;;4.27;73.98;99619.16;4819165;29;20126;-68
2021/12/09 13:37:03;;;;;;;80.00;52.28;;;;;;;4.47;73.56;99612.31;4823618;29;20125;-67
2021/12/09 13:50:52;;;;;;;9.93;3.30;;;;;;;4.58;73.27;99616.13;4823339;29;20100;-68
2021/12/09 13:54:35;;;;;;;9.68;2.65;;;;;;;4.51;73.42;99619.06;4823373;29;20054;-68
2021/12/09 13:57:44;;;;;;;9.65;4.93;;;;;;;4.47;73.71;99612.31;4823424;29;20099;-68
2021/12/09 14:00:51;;;;;;;11.85;5.57;;;;;;;4.52;73.10;99605.19;4823358;29;20110;-68
2021/12/09 14:03:54;;;;;;;9.65;3.38;;;;;;;4.34;73.49;99597.31;4823552;29;20867;-67
2021/12/09 14:07:07;;;;;;;14.48;7.03;;;;;;;4.36;74.29;99605.84;4823446;29;20053;-67
2021/12/09 14:10:14;;;;;;;13.88;4.78;;;;;;;4.26;73.52;99599.38;4823081;29;20567;-68
2021/12/09 14:13:20;;;;;;;9.43;3.78;;;;;;;4.52;73.63;99610.38;4823028;29;20049;-68
2021/12/09 14:22:40;;;;;;;8.82;2.92;;;;;;;4.63;72.67;99603.84;4823089;29;20107;-67
2021/12/09 14:25:44;;;;;;;8.25;3.30;;;;;;;4.54;73.52;99609.41;4822677;29;20057;-67
2021/12/09 14:28:47;;;;;;;7.57;3.13;;;;;;;4.59;74.83;99607.44;4823053;29;20099;-67
2021/12/09 14:31:54;;;;;;;4.93;2.33;;;;;;;4.66;74.44;99614.06;4823030;29;20053;-68
2021/12/09 14:35:02;;;;;;;16.48;3.03;;;;;;;4.71;74.85;99616.47;4822932;29;20451;-68
2021/12/09 14:38:07;;;;;;;8.27;2.70;;;;;;;4.62;75.47;99622.03;4822592;29;20122;-68
2021/12/09 14:41:28;;;;;;;6.07;2.03;;;;;;;4.64;74.78;99615.03;4822455;29;20098;-67
2021/12/09 14:44:32;;;;;;;9.48;2.15;;;;;;;4.71;75.11;99619.06;4823069;29;20049;-68
2021/12/09 14:47:36;;;;;;;8.52;1.83;;;;;;;4.78;73.48;99615.28;4822742;29;20107;-67
2021/12/09 14:50:44;;;;;;;8.63;2.08;;;;;;;4.78;74.52;99612.69;4822704;29;20061;-67
2021/12/09 14:53:51;;;;;;;9.70;2.75;;;;;;;4.73;75.22;99613.81;4822707;29;20057;-67
2021/12/09 14:57:05;;;;;;;8.02;2.15;;;;;;;4.83;74.12;99610.75;4822811;29;20118;-68
2021/12/09 15:00:10;;;;;;;7.32;1.92;;;;;;;4.76;75.84;99611.94;4822855;29;20053;-68
2021/12/09 15:03:17;;;;;;;6.65;2.13;;;;;;;4.77;76.79;99610.19;4821400;29;20084;-67
2021/12/09 15:06:27;;;;;;;7.97;1.98;;;;;;;4.83;76.42;99615.94;4821600;29;20084;-68
2021/12/09 15:09:31;;;;;;;5.65;2.28;;;;;;;4.77;75.97;99616.19;4821528;29;20053;-68
2021/12/09 15:12:37;;;;;;;4.63;1.52;;;;;;;4.81;75.87;99611.72;4821014;29;20053;-68
2021/12/09 15:15:40;;;;;;;6.63;1.88;;;;;;;4.74;76.81;99605.97;4820148;29;20107;-68
2021/12/09 15:18:45;;;;;;;;;;;;;;;4.68;78.02;99608.81;4811290;29;20045;-67
2021/12/09 15:22:16;;;;;;;7.28;1.83;;;;;;;4.63;78.42;99610.78;4821811;29;19988;-68
2021/12/09 15:25:20;;;;;;;6.45;2.70;;;;;;;4.63;77.85;99613.38;4809982;29;20123;-68
2021/12/09 15:28:24;;;;;;;13.02;2.28;;;;;;;4.64;78.53;99615.88;4821294;29;20052;-67
2021/12/09 15:31:27;;;;;;;7.85;2.03;;;;;;;4.55;79.24;99618.00;4833632;29;20049;-67
2021/12/09 15:34:42;;;;;;;4.43;1.70;;;;;;;4.57;79.56;99629.16;4840651;29;20045;-67
2021/12/09 15:37:46;;;;;;;7.82;2.20;;;;;;;4.60;78.70;99623.84;4838595;29;20049;-69
2021/12/09 15:40:50;;;;;;;6.13;2.25;;;;;;;4.62;78.40;99622.84;4836310;29;20079;-67
2021/12/09 15:43:56;;;;;;;6.78;1.88;;;;;;;4.64;78.64;99625.41;4825133;29;20056;-67
2021/12/09 15:47:07;;;;;;;7.90;2.13;;;;;;;4.71;78.53;99629.41;4824985;29;20516;-67
2021/12/09 15:50:23;;;;;;;10.38;1.88;;;;;;;4.75;78.52;99628.38;4825003;29;20090;-68
2021/12/09 15:53:30;;;;;;;6.72;2.10;;;;;;;4.67;79.46;99627.88;4824694;29;20520;-67
2021/12/09 15:56:59;;;;;;;11.20;3.17;;;;;;;4.60;81.24;99634.22;4824993;29;20098;-67
2021/12/09 16:00:06;;;;;;;6.60;2.10;;;;;;;4.59;80.47;99637.69;4806852;29;20054;-67
2021/12/09 16:03:10;;;;;;;9.00;2.90;;;;;;;4.69;80.11;99646.78;4807063;29;20062;-67